Time;durP1;ratioP1;P1;durP2;ratioP2;P2;SDS_P1;SDS_P2;PMS_P1;PMS_P2;Temp;Humidity;BMP_temperature;BMP_pressure;BME280_temperature;BME280_humidity;BME280_pressure;Samples;Min_cycle;Max_cycle;Signal;HPM_P1;HPM_P2
2022/12/17 13:08:07;;;;;;;29.17;11.40;;;0.10;99.90;;;;;;6249603;22;20023;-86
2022/12/17 13:10:34;;;;;;;36.38;12.48;;;0.10;99.90;;;;;;6276480;22;20011;-91
2022/12/17 13:13:34;;;;;;;33.22;13.35;;;0.20;99.90;;;;;;6276477;22;20012;-88
2022/12/17 13:16:24;;;;;;;28.23;12.88;;;0.20;99.90;;;;;;6276906;22;20020;-90
2022/12/17 13:19:00;;;;;;;31.02;12.88;;;0.30;99.90;;;;;;6276833;22;20015;-85
2022/12/17 13:21:28;;;;;;;28.27;11.85;;;0.30;99.90;;;;;;6277291;22;20008;-86
2022/12/17 13:23:54;;;;;;;34.63;12.60;;;0.30;99.90;;;;;;6277334;22;20026;-88
2022/12/17 13:26:43;;;;;;;37.13;13.82;;;0.30;99.90;;;;;;6224584;22;20020;-87
2022/12/17 13:29:26;;;;;;;33.13;12.40;;;0.40;99.90;;;;;;6231067;22;20531;-85
2022/12/17 13:32:22;;;;;;;35.83;12.80;;;0.40;99.90;;;;;;6249867;22;20102;-88
2022/12/17 13:35:02;;;;;;;35.05;12.48;;;0.40;99.90;;;;;;6249452;22;20092;-87
2022/12/17 13:37:56;;;;;;;32.92;13.65;;;0.40;99.90;;;;;;6276521;22;20015;-88
2022/12/17 13:40:42;;;;;;;31.10;13.60;;;0.40;99.90;;;;;;6274488;22;20019;-88
2022/12/17 13:43:20;;;;;;;36.17;12.80;;;0.40;99.90;;;;;;6248049;22;20095;-86
2022/12/17 13:45:46;;;;;;;32.85;12.63;;;0.30;99.90;;;;;;6249339;22;20101;-91
2022/12/17 13:48:24;;;;;;;31.08;13.48;;;0.30;99.90;;;;;;6276565;22;20015;-88
2022/12/17 13:51:00;;;;;;;36.35;14.35;;;0.30;99.90;;;;;;6276094;22;20020;-85
2022/12/17 13:53:28;;;;;;;34.63;13.48;;;0.30;99.90;;;;;;6223968;22;20011;-90
2022/12/17 13:55:57;;;;;;;34.95;14.00;;;0.20;99.90;;;;;;6249358;22;20028;-86
2022/12/17 13:58:25;;;;;;;31.85;12.70;;;0.20;99.90;;;;;;6248626;22;20092;-91
2022/12/17 14:01:02;;;;;;;35.50;13.77;;;0.20;99.90;;;;;;6274468;22;20027;-91
2022/12/17 14:03:27;;;;;;;32.45;13.23;;;0.20;99.90;;;;;;6276004;22;20035;-90
2022/12/17 14:05:54;;;;;;;34.33;13.95;;;0.10;99.90;;;;;;6276052;22;20496;-89
2022/12/17 14:08:26;;;;;;;30.58;13.07;;;0.10;99.90;;;;;;6276040;22;20054;-89
2022/12/17 14:12:20;;;;;;;36.63;13.05;;;0.10;99.90;;;;;;6248958;22;20062;-91
2022/12/17 14:13:49;;;;;;;33.97;14.05;;;0.00;99.90;;;;;;6276226;22;20086;-87
2022/12/17 14:16:22;;;;;;;33.70;12.20;;;0.00;99.90;;;;;;6277097;22;20034;-93
2022/12/17 14:18:55;;;;;;;29.23;12.70;;;0.00;99.90;;;;;;6251039;22;20020;-92
2022/12/17 14:21:22;;;;;;;32.35;13.27;;;-0.10;99.90;;;;;;6278403;22;20091;-95
2022/12/17 14:23:51;;;;;;;30.13;12.37;;;-0.10;99.90;;;;;;6250960;22;20020;-90
2022/12/17 14:26:17;;;;;;;35.40;13.43;;;-0.10;99.90;;;;;;6277973;22;20615;-85
2022/12/17 14:28:47;;;;;;;35.28;13.48;;;-0.10;99.90;;;;;;6278463;22;20018;-90
2022/12/17 14:31:18;;;;;;;36.00;13.82;;;-0.20;99.90;;;;;;6251272;22;20467;-88
2022/12/17 14:34:09;;;;;;;29.27;12.55;;;-0.20;99.90;;;;;;6278531;22;20400;-86
2022/12/17 14:36:46;;;;;;;34.25;13.15;;;-0.30;99.90;;;;;;6279115;22;20142;-92
2022/12/17 14:39:25;;;;;;;31.85;13.25;;;-0.30;99.90;;;;;;6228299;22;20341;-89
2022/12/17 14:44:49;;;;;;;35.15;13.32;;;-0.30;99.90;;;;;;6267593;22;20024;-89
2022/12/17 14:47:24;;;;;;;;;;;-0.40;99.90;;;;;;6294345;22;20019;-86
2022/12/17 14:50:03;;;;;;;35.53;14.18;;;-0.30;99.90;;;;;;6264395;22;19915;-85
2022/12/17 14:52:39;;;;;;;34.67;11.63;;;-0.40;99.90;;;;;;6289555;22;20023;-87
2022/12/17 14:55:24;;;;;;;37.20;14.60;;;-0.40;99.90;;;;;;6255396;22;20356;-92
2022/12/17 14:57:58;;;;;;;33.10;12.85;;;-0.50;99.90;;;;;;6252808;22;20019;-89
2022/12/17 15:00:24;;;;;;;29.65;11.77;;;-0.50;99.90;;;;;;6252404;22;20019;-92
2022/12/17 15:02:53;;;;;;;31.67;12.32;;;-0.60;99.90;;;;;;6278271;22;20031;-89
2022/12/17 15:05:19;;;;;;;33.92;13.20;;;-0.60;99.90;;;;;;6251788;22;20051;-92
2022/12/17 15:07:46;;;;;;;41.80;15.70;;;-0.60;99.90;;;;;;6251433;22;20019;-89
2022/12/17 15:10:13;;;;;;;;;;;-0.60;99.90;;;;;;6230758;22;20043;-90
2022/12/17 15:12:42;;;;;;;59.42;23.38;;;-0.60;99.90;;;;;;6228121;22;19923;-94
2022/12/17 15:15:15;;;;;;;40.95;17.27;;;-0.70;99.90;;;;;;6278427;22;20012;-92
2022/12/17 15:20:19;;;;;;;;;;;-0.70;99.90;;;;;;6369220;22;20010;-85
2022/12/17 15:22:46;;;;;;;47.10;24.85;;;-0.70;99.90;;;;;;6317274;22;20018;-86
2022/12/17 15:25:17;;;;;;;35.50;12.55;;;-0.70;99.90;;;;;;6317823;22;20312;-88
2022/12/17 15:27:44;;;;;;;29.17;11.52;;;-0.80;99.90;;;;;;6317063;22;20017;-88
2022/12/17 15:30:13;;;;;;;33.40;13.45;;;-0.80;99.90;;;;;;6343198;22;20022;-88
2022/12/17 15:32:40;;;;;;;34.20;12.73;;;-0.80;99.90;;;;;;6317230;22;20018;-89
2022/12/17 15:35:06;;;;;;;39.03;13.13;;;-0.80;99.90;;;;;;6344324;22;20436;-86
2022/12/17 15:37:32;;;;;;;30.88;12.20;;;-0.90;99.90;;;;;;6322601;22;20245;-88
2022/12/17 15:39:58;;;;;;;35.15;12.07;;;-0.90;99.90;;;;;;6345590;22;20018;-90
2022/12/17 15:45:11;;;;;;;31.90;11.05;;;-1.00;99.90;;;;;;6345883;22;20390;-90
2022/12/17 15:47:51;;;;;;;34.08;12.02;;;-1.00;99.90;;;;;;6317718;22;20523;-90
2022/12/17 15:50:27;;;;;;;36.75;13.55;;;-1.00;99.90;;;;;;6321056;22;20021;-89
2022/12/17 15:52:54;;;;;;;28.90;11.45;;;-1.00;99.90;;;;;;6345459;22;20077;-87
2022/12/17 15:55:20;;;;;;;32.80;11.63;;;-1.10;99.90;;;;;;6295009;22;20014;-92
2022/12/17 15:57:45;;;;;;;28.65;10.80;;;-1.10;99.90;;;;;;6371069;22;20026;-90
2022/12/17 16:00:14;;;;;;;31.10;11.52;;;-1.10;99.90;;;;;;6317432;22;20010;-89
2022/12/17 16:02:40;;;;;;;35.85;13.15;;;-1.10;99.90;;;;;;6317469;22;20090;-88
2022/12/17 16:05:06;;;;;;;31.30;11.73;;;-1.10;99.90;;;;;;6370767;22;20057;-87
2022/12/17 16:07:32;;;;;;;32.30;11.55;;;-1.10;99.90;;;;;;6317725;22;20053;-89
2022/12/17 16:09:57;;;;;;;35.47;11.90;;;-1.10;99.90;;;;;;6343843;22;20352;-87
2022/12/17 16:12:23;;;;;;;30.98;11.45;;;-1.20;99.90;;;;;;6373552;22;20017;-92
2022/12/17 16:14:50;;;;;;;34.45;12.00;;;-1.20;99.90;;;;;;6347229;22;20022;-93
2022/12/17 16:17:16;;;;;;;29.05;10.98;;;-1.20;99.90;;;;;;6298359;22;20021;-89
2022/12/17 16:19:41;;;;;;;33.33;12.45;;;-1.20;99.90;;;;;;6322181;22;20451;-90
2022/12/17 16:22:07;;;;;;;30.52;11.02;;;-1.30;99.90;;;;;;6375688;22;20136;-90
2022/12/17 16:27:12;;;;;;;31.70;11.45;;;-1.30;99.90;;;;;;6280682;22;20072;-87
2022/12/17 16:29:38;;;;;;;27.55;10.98;;;-1.30;99.90;;;;;;6227781;22;20098;-87
2022/12/17 16:32:03;;;;;;;31.58;10.52;;;-1.30;99.90;;;;;;6250367;22;20454;-86
2022/12/17 16:34:29;;;;;;;34.03;11.15;;;-1.40;99.90;;;;;;6278337;22;20015;-88
2022/12/17 16:36:55;;;;;;;30.02;10.35;;;-1.40;99.90;;;;;;6225875;22;20016;-90
2022/12/17 16:39:21;;;;;;;28.33;10.43;;;-1.40;99.90;;;;;;6226664;22;20055;-87
2022/12/17 16:41:48;;;;;;;32.28;11.50;;;-1.40;99.90;;;;;;6257200;22;20020;-88
2022/12/17 16:44:13;;;;;;;36.33;11.60;;;-1.40;99.90;;;;;;6277130;22;20077;-92
2022/12/17 16:49:22;;;;;;;29.35;11.65;;;-1.50;99.90;;;;;;6288683;22;20023;-87
2022/12/17 16:52:06;;;;;;;30.95;11.18;;;-1.50;99.90;;;;;;6237989;22;20031;-91
2022/12/17 16:54:32;;;;;;;34.05;11.25;;;-1.50;99.90;;;;;;6289314;22;20019;-86
2022/12/17 16:56:59;;;;;;;31.33;10.82;;;-1.50;99.90;;;;;;6262158;22;20019;-88
2022/12/17 16:59:28;;;;;;;34.80;11.68;;;-1.50;99.90;;;;;;6284112;22;20020;-91
2022/12/17 17:01:55;;;;;;;31.95;10.48;;;-1.50;99.90;;;;;;6264078;22;20015;-92
2022/12/17 17:04:22;;;;;;;31.15;10.75;;;-1.60;99.90;;;;;;6257340;22;20027;-92
2022/12/17 17:06:51;;;;;;;34.87;11.40;;;-1.60;99.90;;;;;;6251885;22;20460;-89
2022/12/17 17:09:18;;;;;;;31.15;10.88;;;-1.60;99.90;;;;;;6250837;22;20027;-92
2022/12/17 17:11:43;;;;;;;30.40;10.60;;;-1.60;99.90;;;;;;6250503;22;20330;-88
2022/12/17 17:14:09;;;;;;;31.73;11.32;;;-1.60;99.90;;;;;;6229031;22;20043;-86
2022/12/17 17:16:39;;;;;;;33.50;11.95;;;-1.60;99.90;;;;;;6230865;22;20020;-86
2022/12/17 17:19:07;;;;;;;36.70;11.60;;;-1.60;99.90;;;;;;6254339;22;20052;-87
2022/12/17 17:21:37;;;;;;;26.95;10.10;;;-1.70;99.90;;;;;;6252483;22;20027;-86
2022/12/17 17:24:11;;;;;;;36.38;10.38;;;-1.70;99.90;;;;;;6252689;22;20020;-89
2022/12/17 17:26:37;;;;;;;27.95;10.50;;;-1.70;99.90;;;;;;6253877;22;20015;-85
2022/12/17 17:29:04;;;;;;;33.20;10.27;;;-1.70;99.90;;;;;;6251239;22;20024;-86
2022/12/17 17:31:31;;;;;;;33.55;12.52;;;-1.70;99.90;;;;;;6226097;22;20075;-87
2022/12/17 17:33:57;;;;;;;41.85;12.63;;;-1.70;99.90;;;;;;6232976;22;20077;-86
2022/12/17 17:36:26;;;;;;;34.07;12.87;;;-1.70;99.90;;;;;;6259326;22;20055;-86
2022/12/17 17:38:53;;;;;;;35.85;11.68;;;-1.70;99.90;;;;;;6257118;22;20026;-86
2022/12/17 17:41:20;;;;;;;;;;;-1.80;99.90;;;;;;6229471;22;20019;-89
2022/12/17 17:43:46;;;;;;;37.13;12.05;;;-1.80;99.90;;;;;;6249562;22;19984;-86
2022/12/17 17:46:17;;;;;;;39.42;12.57;;;-1.80;99.90;;;;;;6279190;22;20012;-84
2022/12/17 17:48:45;;;;;;;38.80;12.60;;;-1.80;99.90;;;;;;6249697;22;20057;-89
2022/12/17 17:51:25;;;;;;;32.35;12.98;;;-1.80;99.90;;;;;;6279260;22;20019;-88
2022/12/17 17:53:52;;;;;;;38.25;11.90;;;-1.80;99.90;;;;;;6228835;22;20019;-87
2022/12/17 17:56:30;;;;;;;37.72;12.73;;;-1.80;99.90;;;;;;6255464;22;20019;-87
2022/12/17 17:59:17;;;;;;;;;;;-1.90;99.90;;;;;;6279812;22;20022;-89
2022/12/17 18:01:49;;;;;;;39.90;10.63;;;-1.80;99.90;;;;;;6252140;22;20352;-84
2022/12/17 18:04:17;;;;;;;35.15;12.45;;;-1.80;99.90;;;;;;6279169;22;20020;-85
2022/12/17 18:06:45;;;;;;;39.22;12.50;;;-1.90;99.90;;;;;;6280841;22;20023;-84
2022/12/17 18:09:11;;;;;;;31.85;11.93;;;-1.90;99.90;;;;;;6251427;22;20015;-89
2022/12/17 18:11:39;;;;;;;38.00;11.82;;;-1.90;99.90;;;;;;6252169;22;20038;-86
2022/12/17 18:14:06;;;;;;;33.58;12.15;;;-1.90;99.90;;;;;;6226167;22;20103;-87
2022/12/17 18:16:35;;;;;;;;;;;-1.90;99.90;;;;;;6279538;22;20073;-86
2022/12/17 18:19:06;;;;;;;32.67;11.35;;;-1.90;99.90;;;;;;6279320;22;19973;-86
2022/12/17 18:21:32;;;;;;;37.08;12.43;;;-1.90;99.90;;;;;;6251788;22;20445;-85
2022/12/17 18:24:03;;;;;;;32.20;11.38;;;-2.00;99.90;;;;;;6251853;22;20073;-85
2022/12/17 18:26:38;;;;;;;34.28;11.40;;;-2.00;99.90;;;;;;6251628;22;20083;-84
2022/12/17 18:29:31;;;;;;;31.05;11.40;;;-2.00;99.90;;;;;;6251192;22;20096;-87
2022/12/17 18:31:56;;;;;;;35.83;12.68;;;-2.00;99.90;;;;;;6246625;22;20039;-90
2022/12/17 18:34:26;;;;;;;30.48;9.70;;;-2.00;99.90;;;;;;6251675;22;20019;-92
2022/12/17 18:36:52;;;;;;;34.92;12.30;;;-2.00;99.90;;;;;;6278713;22;20019;-90
2022/12/17 18:39:23;;;;;;;34.67;13.27;;;-2.00;99.90;;;;;;6228203;22;20020;-82
2022/12/17 18:44:40;;;;;;;31.63;11.65;;;-2.00;99.90;;;;;;6230577;22;20020;-87
2022/12/17 18:47:06;;;;;;;39.45;12.55;;;-2.10;99.90;;;;;;6279361;22;20065;-95
2022/12/17 18:49:32;;;;;;;34.35;11.80;;;-2.10;99.90;;;;;;6278918;22;20026;-87
2022/12/17 18:51:58;;;;;;;41.33;13.85;;;-2.00;99.90;;;;;;6278800;22;20020;-86
2022/12/17 18:54:26;;;;;;;30.75;11.68;;;-2.10;99.90;;;;;;6251150;22;20070;-83
2022/12/17 18:56:53;;;;;;;31.75;12.25;;;-2.10;99.90;;;;;;6277949;22;20011;-89
2022/12/17 18:59:21;;;;;;;29.70;10.30;;;-2.10;99.90;;;;;;6277954;22;20023;-84
2022/12/17 19:01:48;;;;;;;33.67;11.27;;;-2.10;99.90;;;;;;6251207;22;20019;-83
2022/12/17 19:04:19;;;;;;;34.28;11.20;;;-2.10;99.90;;;;;;6279269;22;20031;-89
2022/12/17 19:06:47;;;;;;;36.75;12.57;;;-2.10;99.90;;;;;;6251397;22;20011;-94
2022/12/17 19:09:35;;;;;;;31.25;11.57;;;-2.10;99.90;;;;;;6278124;22;20023;-88
2022/12/17 19:12:06;;;;;;;35.65;12.57;;;-2.10;99.90;;;;;;6277850;22;20015;-84
2022/12/17 19:14:33;;;;;;;36.35;12.27;;;-2.20;99.90;;;;;;6250683;22;20065;-84
2022/12/17 19:16:59;;;;;;;40.33;12.52;;;-2.20;99.90;;;;;;6277772;22;20471;-82
2022/12/17 19:19:25;;;;;;;36.08;12.70;;;-2.20;99.90;;;;;;6251552;22;20019;-85
2022/12/17 19:21:53;;;;;;;37.93;11.63;;;-2.10;99.90;;;;;;6278391;22;20465;-82
2022/12/17 19:24:20;;;;;;;36.40;12.25;;;-2.10;99.90;;;;;;6250969;22;20020;-88
2022/12/17 19:26:47;;;;;;;;;;;-2.10;99.90;;;;;;6255744;22;20016;-83
2022/12/17 19:29:14;;;;;;;34.25;11.82;;;-2.10;99.90;;;;;;6273030;22;19970;-82
2022/12/17 19:31:40;;;;;;;39.65;12.45;;;-2.10;99.90;;;;;;6321854;22;20019;-82
2022/12/17 19:34:09;;;;;;;32.63;10.60;;;-2.10;99.90;;;;;;6297516;22;20436;-83
2022/12/17 19:36:39;;;;;;;35.38;12.52;;;-2.10;99.90;;;;;;6343087;22;20056;-83
2022/12/17 19:39:07;;;;;;;35.95;11.40;;;-2.10;99.90;;;;;;6341769;22;20087;-83
2022/12/17 19:41:34;;;;;;;30.77;11.65;;;-2.10;99.90;;;;;;6289396;22;20015;-93
2022/12/17 19:44:05;;;;;;;39.38;12.93;;;-2.10;99.90;;;;;;6345320;22;20436;-92
2022/12/17 19:46:34;;;;;;;40.78;12.88;;;-2.10;99.90;;;;;;6342942;22;20049;-89
2022/12/17 19:49:15;;;;;;;35.20;12.02;;;-2.10;99.90;;;;;;6348562;22;20027;-85
2022/12/17 19:51:43;;;;;;;34.05;13.65;;;-2.10;99.90;;;;;;6314072;22;20090;-87
2022/12/17 19:54:11;;;;;;;34.80;13.57;;;-2.10;99.90;;;;;;6288011;22;20011;-86
2022/12/17 19:56:37;;;;;;;34.72;13.48;;;-2.10;99.90;;;;;;6313961;22;20011;-92
2022/12/17 19:59:06;;;;;;;37.87;12.87;;;-2.10;99.90;;;;;;6316451;22;20014;-84
2022/12/17 20:01:38;;;;;;;38.30;13.35;;;-2.10;99.90;;;;;;6316627;22;20022;-91
2022/12/17 20:04:04;;;;;;;36.25;12.98;;;-2.10;99.90;;;;;;6340919;22;20015;-85
2022/12/17 20:06:33;;;;;;;36.53;12.98;;;-2.10;99.90;;;;;;6288793;22;20010;-89
2022/12/17 20:09:00;;;;;;;34.60;13.05;;;-2.10;99.90;;;;;;6290614;22;20076;-88
2022/12/17 20:11:32;;;;;;;37.13;12.20;;;-2.10;99.90;;;;;;6340959;22;20029;-86
2022/12/17 20:14:09;;;;;;;38.00;13.05;;;-2.10;99.90;;;;;;6340517;22;20086;-85
2022/12/17 20:16:41;;;;;;;41.58;14.55;;;-2.10;99.90;;;;;;6290984;22;20093;-85
2022/12/17 20:19:11;;;;;;;36.58;13.43;;;-2.10;99.90;;;;;;6345748;22;20026;-85
2022/12/17 20:21:41;;;;;;;40.55;14.82;;;-2.20;99.90;;;;;;6319354;22;20050;-85
2022/12/17 20:24:14;;;;;;;41.22;13.98;;;-2.10;99.90;;;;;;6349071;22;20416;-85
2022/12/17 20:26:50;;;;;;;38.70;15.07;;;-2.10;99.90;;;;;;6323453;22;20022;-84
2022/12/17 20:29:19;;;;;;;36.60;13.65;;;-2.20;99.90;;;;;;6299744;22;20042;-86
2022/12/17 20:37:15;;;;;;;37.45;12.60;;;-2.20;99.90;;;;;;6288800;22;19915;-87
2022/12/17 20:40:05;;;;;;;37.42;14.52;;;-2.20;99.90;;;;;;6211497;22;20039;-88
2022/12/17 20:45:10;;;;;;;38.00;14.77;;;-2.20;99.90;;;;;;6289930;22;20024;-85
2022/12/17 20:47:52;;;;;;;38.00;15.45;;;-2.20;99.90;;;;;;6290754;22;20034;-86
2022/12/17 20:50:36;;;;;;;37.58;14.88;;;-2.20;99.90;;;;;;6270421;22;20015;-85
2022/12/17 20:53:02;;;;;;;37.45;14.63;;;-2.20;99.90;;;;;;6269779;22;20020;-86
2022/12/17 20:55:29;;;;;;;37.72;15.68;;;-2.30;99.90;;;;;;6265334;22;20035;-89
2022/12/17 20:57:54;;;;;;;42.20;16.93;;;-2.30;99.90;;;;;;6268650;22;20070;-90
2022/12/17 21:00:21;;;;;;;39.80;16.13;;;-2.30;99.90;;;;;;6293912;22;20261;-87
2022/12/17 21:02:55;;;;;;;46.55;15.65;;;-2.30;99.90;;;;;;6302958;22;20048;-85
2022/12/17 21:05:27;;;;;;;39.97;15.07;;;-2.40;99.90;;;;;;6300026;22;20019;-92
2022/12/17 21:07:56;;;;;;;36.80;15.43;;;-2.40;99.90;;;;;;6287454;22;20003;-96
2022/12/17 21:10:22;;;;;;;35.85;14.98;;;-2.40;99.90;;;;;;6293712;22;20023;-96
2022/12/17 21:15:37;;;;;;;41.95;16.00;;;-2.40;99.90;;;;;;6265845;22;20023;-89
2022/12/17 21:18:15;;;;;;;41.05;17.15;;;-2.50;99.90;;;;;;6319733;22;20019;-86
2022/12/17 21:20:41;;;;;;;44.13;16.48;;;-2.50;99.90;;;;;;6272219;22;20029;-96
2022/12/17 21:23:07;;;;;;;39.97;16.50;;;-2.40;99.90;;;;;;6257852;22;20094;-94
2022/12/17 21:25:32;;;;;;;43.83;15.60;;;-2.40;99.90;;;;;;6287569;22;20047;-93
2022/12/17 21:28:01;;;;;;;42.90;15.65;;;-2.40;99.90;;;;;;6269532;22;20015;-89
2022/12/17 21:30:36;;;;;;;44.40;16.13;;;-2.40;99.90;;;;;;6294518;22;20011;-88
2022/12/17 21:33:07;;;;;;;39.78;16.95;;;-2.40;99.90;;;;;;6265961;22;20076;-87
2022/12/17 21:35:42;;;;;;;42.40;15.57;;;-2.30;99.90;;;;;;6317540;22;20053;-87
2022/12/17 21:38:12;;;;;;;41.78;16.20;;;-2.30;99.90;;;;;;6318533;22;20021;-88
2022/12/17 21:40:48;;;;;;;38.83;16.25;;;-2.30;99.90;;;;;;6321391;22;20336;-87
2022/12/17 21:43:13;;;;;;;38.08;15.05;;;-2.30;99.90;;;;;;6284242;22;20023;-90
2022/12/17 21:45:41;;;;;;;43.40;17.17;;;-2.30;99.90;;;;;;6318981;22;20035;-88
2022/12/17 21:48:10;;;;;;;39.75;15.27;;;-2.30;99.90;;;;;;6318380;22;20011;-87
2022/12/17 21:53:11;;;;;;;39.72;15.23;;;-2.30;99.90;;;;;;6260110;22;20042;-88
2022/12/17 21:55:40;;;;;;;36.85;14.65;;;-2.30;99.90;;;;;;6209761;23;20063;-92
2022/12/17 21:58:08;;;;;;;40.38;15.48;;;-2.30;99.90;;;;;;6224092;23;20035;-92
2022/12/17 22:00:34;;;;;;;;;;;-2.40;99.90;;;;;;6231847;23;20036;-87
2022/12/17 22:03:20;;;;;;;40.85;14.63;;;-2.40;99.90;;;;;;6227109;23;19915;-86
2022/12/17 22:05:49;;;;;;;41.67;14.65;;;-2.40;99.90;;;;;;6227114;23;20402;-83
2022/12/17 22:08:21;;;;;;;43.10;14.15;;;-2.50;99.90;;;;;;6203909;23;20020;-84
2022/12/17 22:10:50;;;;;;;34.75;14.43;;;-2.50;99.90;;;;;;6179042;23;20012;-83
2022/12/17 22:16:06;;;;;;;35.75;13.10;;;-2.50;99.90;;;;;;6224438;23;20031;-89
2022/12/17 22:18:35;;;;;;;41.05;15.13;;;-2.50;99.90;;;;;;6256331;23;20070;-92
2022/12/17 22:21:02;;;;;;;40.08;14.70;;;-2.60;99.90;;;;;;6254756;23;20020;-85
2022/12/17 22:23:28;;;;;;;43.35;16.33;;;-2.60;99.90;;;;;;6258798;23;20072;-93
2022/12/17 22:25:58;;;;;;;44.30;14.88;;;-2.60;99.90;;;;;;6226672;23;20024;-86
2022/12/17 22:28:25;;;;;;;38.88;15.15;;;-2.60;99.90;;;;;;6232308;23;20016;-87
2022/12/17 22:33:38;;;;;;;34.33;13.43;;;-2.60;99.90;;;;;;6230339;23;20082;-85
2022/12/17 22:36:04;;;;;;;42.58;14.80;;;-2.60;99.90;;;;;;6230513;23;20020;-87
2022/12/17 22:38:30;;;;;;;36.67;14.00;;;-2.50;99.90;;;;;;6258744;23;20024;-90
2022/12/17 22:41:05;;;;;;;43.15;13.70;;;-2.50;99.90;;;;;;6230269;23;20094;-90
2022/12/17 22:43:52;;;;;;;34.97;13.65;;;-2.60;99.90;;;;;;6232916;23;20020;-84
2022/12/17 22:46:22;;;;;;;46.78;15.70;;;-2.60;99.90;;;;;;6212877;23;20118;-86
2022/12/17 22:48:56;;;;;;;42.20;15.45;;;-2.60;99.90;;;;;;6264246;23;20020;-88
2022/12/17 22:51:25;;;;;;;43.45;15.95;;;-2.70;99.90;;;;;;6252174;23;20442;-92
2022/12/17 22:53:52;;;;;;;43.65;14.93;;;-2.70;99.90;;;;;;6251880;23;20023;-91
2022/12/17 22:56:21;;;;;;;37.60;13.77;;;-2.70;99.90;;;;;;6255731;23;20020;-88
2022/12/17 22:58:47;;;;;;;35.25;13.50;;;-2.70;99.90;;;;;;6252282;23;20020;-94
2022/12/17 23:01:13;;;;;;;39.50;14.27;;;-2.70;99.90;;;;;;6253092;23;20020;-95
2022/12/17 23:03:40;;;;;;;42.17;14.02;;;-2.70;99.90;;;;;;6224946;23;20020;-92
2022/12/17 23:06:14;;;;;;;39.22;14.32;;;-2.70;99.90;;;;;;6256839;23;20076;-93
2022/12/17 23:08:41;;;;;;;42.50;14.75;;;-2.70;99.90;;;;;;6260632;23;20043;-92
2022/12/17 23:13:43;;;;;;;39.60;15.27;;;-2.80;99.90;;;;;;6312170;22;20025;-86
2022/12/17 23:16:12;;;;;;;44.90;14.85;;;-2.80;99.90;;;;;;6330040;22;20052;-87
2022/12/17 23:18:45;;;;;;;38.25;14.45;;;-2.80;99.90;;;;;;6327671;22;20015;-85
2022/12/17 23:21:26;;;;;;;37.25;13.15;;;-2.80;99.90;;;;;;6353793;22;20026;-96
2022/12/17 23:24:00;;;;;;;39.33;14.82;;;-2.80;99.90;;;;;;6329853;22;20381;-85
2022/12/17 23:26:30;;;;;;;48.30;16.15;;;-2.90;99.90;;;;;;6307792;22;20021;-87
2022/12/17 23:28:58;;;;;;;35.88;14.45;;;-2.90;99.90;;;;;;6312955;22;20066;-85
2022/12/17 23:31:31;;;;;;;36.70;14.13;;;-2.90;99.90;;;;;;6365414;22;20022;-86
2022/12/17 23:33:56;;;;;;;39.40;14.63;;;-2.80;99.90;;;;;;6357779;22;20022;-86
2022/12/17 23:36:24;;;;;;;47.92;14.60;;;-2.80;99.90;;;;;;6330939;22;20440;-89
2022/12/17 23:38:51;;;;;;;40.05;14.18;;;-2.90;99.90;;;;;;6321465;22;20041;-89
2022/12/17 23:41:22;;;;;;;41.58;15.40;;;-2.80;99.90;;;;;;6314821;22;20019;-87
2022/12/17 23:43:48;;;;;;;42.15;14.88;;;-2.80;99.90;;;;;;6313004;22;20088;-88
2022/12/17 23:46:15;;;;;;;36.70;13.47;;;-2.80;99.90;;;;;;6313100;22;20015;-95
2022/12/17 23:48:42;;;;;;;36.03;13.13;;;-2.80;99.90;;;;;;6341028;22;20015;-87
2022/12/17 23:51:09;;;;;;;39.65;14.57;;;-2.80;99.90;;;;;;6313384;22;20505;-87
2022/12/17 23:53:36;;;;;;;38.20;12.70;;;-2.80;99.90;;;;;;6290121;22;20018;-86
2022/12/17 23:56:06;;;;;;;;;;;-2.80;99.90;;;;;;6293656;22;20052;-96
2022/12/17 23:58:34;;;;;;;38.08;12.95;;;-2.70;99.90;;;;;;6323138;22;19968;-96
